Time;durP1;ratioP1;P1;durP2;ratioP2;P2;SDS_P1;SDS_P2;PMS_P1;PMS_P2;Temp;Humidity;BMP_temperature;BMP_pressure;BME280_temperature;BME280_humidity;BME280_pressure;Samples;Min_cycle;Max_cycle;Signal;HPM_P1;HPM_P2
2021/07/26 00:01:27;;;;;;;2.93;1.93;;;;;;;17.02;62.78;101385.91;5050384;28;20198;-67
2021/07/26 00:03:55;;;;;;;3.73;1.23;;;;;;;16.19;62.63;101242.78;5048932;28;20214;-67
2021/07/26 00:06:23;;;;;;;1.60;1.30;;;;;;;16.96;63.13;101384.56;5036878;28;20602;-67
2021/07/26 00:08:51;;;;;;;1.90;1.40;;;;;;;16.88;63.58;101381.66;5046678;28;20681;-69
2021/07/26 00:11:21;;;;;;;2.00;1.50;;;;;;;16.89;63.51;101385.22;5048368;28;20232;-70
2021/07/26 00:13:49;;;;;;;1.80;1.50;;;;;;;16.82;63.65;101378.56;5048254;28;20579;-67
2021/07/26 00:16:17;;;;;;;2.73;1.67;;;;;;;16.65;63.00;101358.25;5049979;28;20205;-68
2021/07/26 00:18:45;;;;;;;1.47;1.37;;;;;;;16.78;63.56;101383.38;5049150;28;20670;-67
2021/07/26 00:21:13;;;;;;;3.30;1.80;;;;;;;16.75;63.41;101386.34;5049286;28;20559;-69
2021/07/26 00:23:42;;;;;;;1.87;1.50;;;;;;;16.75;63.72;101391.78;5049492;28;20194;-69
2021/07/26 00:26:11;;;;;;;3.90;1.37;;;;;;;16.48;63.93;101351.50;5044156;28;20205;-70
2021/07/26 00:28:40;;;;;;;1.43;1.30;;;;;;;16.67;63.47;101383.44;5047610;28;20226;-69
2021/07/26 00:31:08;;;;;;;2.17;1.50;;;;;;;16.69;63.56;101385.03;5049300;28;20693;-67
2021/07/26 00:34:18;;;;;;;3.30;1.63;;;;;;;16.66;63.89;101376.28;5049214;28;20285;-67
2021/07/26 00:36:48;;;;;;;2.00;1.53;;;;;;;16.69;63.22;101381.44;5047445;28;20593;-67
2021/07/26 00:39:18;;;;;;;1.60;1.40;;;;;;;16.70;63.13;101381.31;5044042;28;20209;-67
2021/07/26 00:41:47;;;;;;;2.63;1.70;;;;;;;16.72;63.29;101389.31;5048754;28;20197;-67
2021/07/26 00:44:18;;;;;;;1.93;1.40;;;;;;;16.72;62.97;101382.06;5042943;28;20209;-67
2021/07/26 00:46:47;;;;;;;2.50;1.70;;;;;;;16.73;62.95;101374.78;5041929;28;20221;-67
2021/07/26 00:49:17;;;;;;;4.37;1.80;;;;;;;16.65;63.82;101380.81;5048243;28;20675;-67
2021/07/26 00:51:47;;;;;;;3.57;1.90;;;;;;;16.60;63.29;101363.22;5037643;28;20659;-67
2021/07/26 00:54:18;;;;;;;1.53;1.30;;;;;;;16.62;63.17;101366.66;5058291;28;20202;-67
2021/07/26 00:56:48;;;;;;;1.90;1.70;;;;;;;16.58;63.90;101363.34;5047855;28;20327;-69
2021/07/26 00:59:18;;;;;;;2.57;1.70;;;;;;;16.37;63.87;101327.16;5048897;28;20623;-68
2021/07/26 01:01:47;;;;;;;2.63;1.77;;;;;;;16.63;63.64;101371.09;5057122;28;20217;-67
2021/07/26 01:04:16;;;;;;;2.30;1.50;;;;;;;16.61;63.58;101367.63;5048973;28;20190;-67
2021/07/26 01:06:46;;;;;;;2.67;1.60;;;;;;;16.57;63.70;101356.19;5046103;28;20198;-68
2021/07/26 01:09:15;;;;;;;4.60;1.67;;;;;;;16.62;62.81;101362.09;5048127;28;20202;-67
2021/07/26 01:11:44;;;;;;;1.93;1.50;;;;;;;16.61;63.38;101364.94;5048760;28;20462;-69
2021/07/26 01:14:15;;;;;;;4.07;1.87;;;;;;;16.59;63.15;101358.78;5046215;28;20298;-69
2021/07/26 01:16:46;;;;;;;3.57;1.70;;;;;;;16.60;63.72;101364.06;5044039;28;20288;-69
2021/07/26 01:19:14;;;;;;;2.87;1.53;;;;;;;16.58;63.11;101360.63;5047549;28;20267;-69
2021/07/26 01:21:44;;;;;;;2.63;1.97;;;;;;;16.55;63.60;101350.03;5036667;28;20206;-69
2021/07/26 01:24:13;;;;;;;1.80;1.50;;;;;;;16.54;63.32;101348.31;5047945;28;20212;-69
2021/07/26 01:26:41;;;;;;;2.70;1.87;;;;;;;16.55;63.37;101351.88;5048936;28;20199;-69
2021/07/26 01:29:10;;;;;;;5.13;2.50;;;;;;;16.56;62.94;101342.75;5043786;28;20244;-69
2021/07/26 01:31:39;;;;;;;5.40;2.60;;;;;;;16.53;63.56;101337.56;5049209;28;20339;-69
2021/07/26 01:34:07;;;;;;;3.93;2.30;;;;;;;16.51;64.10;101344.97;5042555;28;20282;-67
2021/07/26 01:36:36;;;;;;;3.47;2.20;;;;;;;16.48;63.62;101339.81;5039656;28;20212;-67
2021/07/26 01:39:05;;;;;;;4.60;2.30;;;;;;;16.50;63.47;101343.25;5048362;28;20627;-69
2021/07/26 01:41:36;;;;;;;4.63;2.20;;;;;;;16.51;63.17;101342.25;5030883;28;20194;-69
2021/07/26 01:44:10;;;;;;;3.37;2.20;;;;;;;16.48;63.77;101337.09;5041929;28;20191;-67
2021/07/26 01:46:55;;;;;;;3.10;1.90;;;;;;;16.46;64.38;101334.50;5038294;28;20201;-69
2021/07/26 01:49:55;;;;;;;4.53;2.17;;;;;;;16.45;63.82;101344.50;5048775;28;20626;-69
2021/07/26 01:52:24;;;;;;;6.07;1.70;;;;;;;16.37;64.28;101330.72;5025069;28;20236;-67
2021/07/26 01:54:55;;;;;;;2.53;1.60;;;;;;;16.36;63.44;101330.84;5040309;28;20211;-69
2021/07/26 01:57:24;;;;;;;2.20;1.60;;;;;;;16.34;64.07;101325.56;5047129;28;20482;-69
2021/07/26 01:59:53;;;;;;;3.70;1.77;;;;;;;16.35;63.45;101329.97;5051968;28;20382;-67
2021/07/26 02:02:23;;;;;;;2.50;1.80;;;;;;;16.39;63.52;101330.59;5052094;28;20654;-69
2021/07/26 02:04:51;;;;;;;2.77;1.60;;;;;;;16.40;62.96;101327.75;5051965;28;20200;-69
2021/07/26 02:07:21;;;;;;;2.53;1.83;;;;;;;16.38;63.87;101329.72;5050828;28;20705;-67
2021/07/26 02:09:52;;;;;;;3.23;1.80;;;;;;;16.40;63.40;101325.03;5051700;28;20237;-69
2021/07/26 02:12:22;;;;;;;3.13;1.83;;;;;;;16.41;63.72;101324.03;5051846;28;20561;-67
2021/07/26 02:14:51;;;;;;;2.53;1.60;;;;;;;16.43;62.98;101327.50;5051063;28;20734;-69
2021/07/26 02:17:19;;;;;;;2.73;1.80;;;;;;;16.42;63.29;101327.63;5039485;28;20549;-67
2021/07/26 02:19:47;;;;;;;3.63;2.00;;;;;;;16.44;63.57;101334.63;5051766;28;20206;-69
2021/07/26 02:22:15;;;;;;;2.90;2.03;;;;;;;16.41;63.82;101328.59;5051722;28;20208;-69
2021/07/26 02:24:43;;;;;;;4.33;2.27;;;;;;;16.36;63.92;101330.84;5052822;28;20209;-69
2021/07/26 02:27:11;;;;;;;3.90;2.07;;;;;;;16.43;64.12;101337.47;5049267;28;20206;-67
2021/07/26 02:29:41;;;;;;;2.20;1.80;;;;;;;16.42;64.39;101342.03;5050646;28;20241;-67
2021/07/26 02:32:09;;;;;;;2.73;1.60;;;;;;;16.39;64.76;101342.28;5046319;28;20696;-69
2021/07/26 02:34:38;;;;;;;2.87;1.80;;;;;;;16.36;64.46;101347.97;5042478;28;20205;-69
2021/07/26 02:37:06;;;;;;;5.07;1.77;;;;;;;16.34;64.51;101352.66;5041207;28;20687;-69
2021/07/26 02:39:34;;;;;;;2.60;1.70;;;;;;;16.32;64.33;101346.50;5046452;28;20575;-69
2021/07/26 02:42:03;;;;;;;4.70;2.03;;;;;;;16.41;63.84;101358.44;5042462;28;20186;-69
2021/07/26 02:44:31;;;;;;;5.23;2.07;;;;;;;16.37;64.35;101351.53;5047772;28;20198;-69
2021/07/26 02:47:01;;;;;;;2.83;1.97;;;;;;;16.43;64.10;101354.59;5044849;28;20301;-69
2021/07/26 02:49:29;;;;;;;2.17;1.60;;;;;;;16.43;64.13;101359.16;5046239;28;20216;-69
2021/07/26 02:51:57;;;;;;;3.43;2.10;;;;;;;16.45;64.43;101358.06;5046652;28;20683;-67
2021/07/26 02:54:25;;;;;;;1.80;1.57;;;;;;;16.46;64.26;101364.34;5042692;28;20208;-67
2021/07/26 02:56:53;;;;;;;2.30;1.80;;;;;;;16.47;64.30;101360.63;5041243;28;20205;-67
2021/07/26 02:59:21;;;;;;;6.93;1.90;;;;;;;16.49;64.66;101363.22;5041988;28;20202;-67
2021/07/26 03:01:51;;;;;;;3.03;1.97;;;;;;;16.52;64.42;101357.53;5049305;28;20190;-67
2021/07/26 03:04:21;;;;;;;4.40;2.00;;;;;;;16.70;64.62;101358.75;5044619;28;20248;-67
2021/07/26 03:06:49;;;;;;;2.47;1.93;;;;;;;16.59;64.75;101302.69;5045794;28;20186;-67
2021/07/26 03:09:17;;;;;;;3.70;2.40;;;;;;;17.13;65.75;101368.69;5044653;28;20198;-67
2021/07/26 03:11:45;;;;;;;6.07;2.00;;;;;;;17.29;66.22;101352.81;5043471;28;20229;-67
2021/07/26 03:14:13;;;;;;;4.43;2.30;;;;;;;17.58;65.80;101355.72;5048238;28;20651;-67
2021/07/26 03:16:41;;;;;;;3.30;2.27;;;;;;;17.78;65.72;101354.03;5050043;28;20269;-68
2021/07/26 03:19:10;;;;;;;3.97;2.50;;;;;;;17.85;65.76;101349.75;5045877;28;20186;-68
2021/07/26 03:21:40;;;;;;;3.47;2.20;;;;;;;18.00;65.64;101359.25;5048100;28;20217;-68
2021/07/26 03:24:08;;;;;;;5.67;2.37;;;;;;;18.07;66.00;101360.44;5046795;28;20670;-69
2021/07/26 03:26:36;;;;;;;3.47;2.30;;;;;;;18.13;66.23;101362.59;5050181;28;20216;-69
2021/07/26 03:29:04;;;;;;;6.10;2.47;;;;;;;18.23;66.49;101366.22;5041171;28;20230;-67
2021/07/26 03:31:32;;;;;;;4.27;2.77;;;;;;;18.30;67.35;101366.50;5039496;28;20246;-68
2021/07/26 03:34:01;;;;;;;3.97;2.60;;;;;;;18.47;67.22;101370.44;5049309;28;20220;-69
2021/07/26 03:36:29;;;;;;;4.53;2.77;;;;;;;18.64;66.97;101358.88;5046041;28;20194;-69
2021/07/26 03:38:58;;;;;;;4.13;2.50;;;;;;;18.78;66.88;101355.78;5046781;28;20210;-69
2021/07/26 03:41:26;;;;;;;4.70;2.43;;;;;;;18.86;67.43;101358.63;5035602;28;20202;-67
2021/07/26 03:43:55;;;;;;;4.50;2.70;;;;;;;18.92;66.90;101363.50;5033033;28;20418;-68
2021/07/26 03:46:23;;;;;;;4.47;2.40;;;;;;;18.96;66.66;101364.06;5049133;28;20201;-69
2021/07/26 03:48:51;;;;;;;2.87;2.30;;;;;;;19.05;67.03;101367.81;5043462;28;20203;-69
2021/07/26 03:51:19;;;;;;;4.27;2.30;;;;;;;19.10;66.81;101365.53;5028619;28;20641;-67
2021/07/26 03:53:48;;;;;;;4.73;2.70;;;;;;;19.17;66.46;101372.09;5046411;28;20220;-69
2021/07/26 03:56:19;;;;;;;5.73;2.83;;;;;;;19.16;66.35;101364.94;5050151;28;20197;-70
2021/07/26 03:58:47;;;;;;;3.57;2.40;;;;;;;19.19;66.19;101354.63;5048260;28;20209;-67
2021/07/26 04:01:15;;;;;;;3.93;2.80;;;;;;;19.22;66.47;101358.91;5050261;28;20293;-69
2021/07/26 04:03:43;;;;;;;5.33;2.87;;;;;;;19.30;66.44;101356.34;5049955;28;20194;-69
2021/07/26 04:06:13;;;;;;;3.97;2.30;;;;;;;19.33;66.33;101347.88;5049624;28;20202;-69
2021/07/26 04:08:44;;;;;;;5.43;3.00;;;;;;;19.41;66.91;101347.13;5049560;28;20320;-67
2021/07/26 04:11:15;;;;;;;3.67;2.70;;;;;;;19.42;68.25;101354.31;5050244;28;20589;-67
2021/07/26 04:13:52;;;;;;;4.50;2.70;;;;;;;19.53;67.67;101351.44;5041668;28;20233;-69
2021/07/26 04:16:20;;;;;;;4.33;2.57;;;;;;;19.61;68.16;101348.84;5036920;28;20623;-69
2021/07/26 04:18:50;;;;;;;6.03;2.93;;;;;;;19.50;68.38;101319.88;5033928;28;20680;-67
2021/07/26 04:21:18;;;;;;;3.43;2.50;;;;;;;19.75;68.42;101348.38;5050287;28;20241;-68
2021/07/26 04:23:46;;;;;;;4.43;2.60;;;;;;;19.87;67.59;101351.75;5045062;28;20221;-67
2021/07/26 04:26:14;;;;;;;5.40;2.73;;;;;;;19.95;68.27;101357.34;5029531;28;20209;-68
2021/07/26 04:28:42;;;;;;;5.80;3.17;;;;;;;20.05;68.07;101357.31;5044632;28;20230;-68
2021/07/26 04:31:12;;;;;;;9.57;2.87;;;;;;;20.11;67.90;101354.81;5049606;28;20201;-69
2021/07/26 04:33:40;;;;;;;5.30;2.57;;;;;;;20.09;67.44;101325.97;5048441;28;20245;-68
2021/07/26 04:36:08;;;;;;;4.40;2.80;;;;;;;20.31;68.25;101352.00;5037696;28;20194;-69
2021/07/26 04:38:36;;;;;;;4.13;2.63;;;;;;;20.33;68.66;101341.78;5034915;28;20618;-69
2021/07/26 04:41:04;;;;;;;6.83;2.53;;;;;;;20.24;68.86;101312.72;5039199;28;20687;-67
2021/07/26 04:43:32;;;;;;;5.13;2.73;;;;;;;20.47;67.68;101344.03;5045873;28;20194;-67
2021/07/26 04:46:00;;;;;;;4.80;2.80;;;;;;;20.00;67.84;101262.31;5049271;28;20292;-69
2021/07/26 04:48:30;;;;;;;6.30;3.00;;;;;;;20.50;68.96;101345.59;5047628;28;20219;-68
2021/07/26 04:50:58;;;;;;;5.03;3.07;;;;;;;20.49;68.91;101332.97;5048794;28;20202;-73
2021/07/26 04:53:26;;;;;;;6.90;3.27;;;;;;;20.20;70.01;101293.03;5041956;28;20218;-69
2021/07/26 04:55:55;;;;;;;4.50;2.57;;;;;;;20.49;69.87;101324.78;5044719;28;20328;-69
2021/07/26 04:58:23;;;;;;;4.10;2.77;;;;;;;20.47;70.04;101319.47;5047940;28;20205;-67
2021/07/26 05:00:52;;;;;;;4.77;2.80;;;;;;;20.48;70.65;101325.78;5040665;28;20202;-67
2021/07/26 05:03:20;;;;;;;5.07;2.70;;;;;;;20.50;71.27;101329.22;5042894;28;20285;-67
2021/07/26 05:05:49;;;;;;;5.37;2.93;;;;;;;20.52;71.50;101322.63;5047459;28;20194;-67
2021/07/26 05:08:17;;;;;;;3.87;2.97;;;;;;;20.57;71.85;101324.88;5034097;28;20702;-67
2021/07/26 05:10:47;;;;;;;5.67;3.07;;;;;;;20.65;71.20;101323.09;5041813;28;20371;-67
2021/07/26 05:13:15;;;;;;;5.70;2.70;;;;;;;20.57;72.94;101320.28;5044796;28;20218;-67
2021/07/26 05:15:43;;;;;;;5.20;3.17;;;;;;;20.54;72.64;101281.53;5047320;28;20212;-67
2021/07/26 05:18:12;;;;;;;9.60;3.80;;;;;;;20.74;74.57;101324.88;5047084;28;20205;-67
2021/07/26 05:20:40;;;;;;;4.53;2.97;;;;;;;20.88;72.79;101323.50;5043116;28;20585;-69
2021/07/26 05:23:10;;;;;;;4.57;2.73;;;;;;;20.76;75.62;101303.72;5047604;28;20220;-69
2021/07/26 05:25:43;;;;;;;6.13;3.10;;;;;;;20.97;74.81;101318.94;5048229;28;20202;-66
2021/07/26 05:28:11;;;;;;;8.87;3.30;;;;;;;20.88;75.16;101281.66;5047864;28;20241;-66
2021/07/26 05:30:39;;;;;;;5.97;3.77;;;;;;;21.20;75.17;101311.97;5048177;28;20195;-67
2021/07/26 05:33:08;;;;;;;6.47;3.10;;;;;;;21.37;74.87;101305.63;5052248;28;20213;-67
2021/07/26 05:35:36;;;;;;;7.93;3.80;;;;;;;21.66;73.61;101315.38;5052164;28;20201;-66
2021/07/26 05:38:04;;;;;;;5.17;3.03;;;;;;;21.86;72.94;101308.66;5052770;28;20190;-67
2021/07/26 05:40:34;;;;;;;4.90;2.73;;;;;;;22.16;72.04;101314.66;5046452;28;20216;-68
2021/07/26 05:43:03;;;;;;;7.47;3.13;;;;;;;22.24;71.86;101284.56;5039890;28;20655;-67
2021/07/26 05:45:31;;;;;;;5.50;3.00;;;;;;;22.55;70.62;101315.78;5051236;28;20199;-67
2021/07/26 05:47:59;;;;;;;7.00;3.20;;;;;;;22.89;69.79;101325.78;5050473;28;20206;-68
2021/07/26 05:50:27;;;;;;;4.13;3.00;;;;;;;22.96;69.83;101324.13;5052392;28;20205;-67
2021/07/26 05:52:55;;;;;;;6.13;2.80;;;;;;;23.02;69.31;101323.41;5056863;28;20236;-67
2021/07/26 05:55:23;;;;;;;4.80;3.07;;;;;;;23.07;69.01;101321.03;5052188;28;20198;-67
2021/07/26 05:57:53;;;;;;;4.03;2.70;;;;;;;23.26;68.42;101321.69;5052545;28;20202;-67
2021/07/26 06:00:34;;;;;;;5.00;3.00;;;;;;;23.24;68.67;101322.72;5051899;28;20198;-67
2021/07/26 06:03:03;;;;;;;5.37;2.90;;;;;;;23.25;67.88;101326.31;5040676;28;20195;-68
2021/07/26 06:05:31;;;;;;;5.53;3.07;;;;;;;23.26;67.86;101324.41;5038652;28;20572;-67
2021/07/26 06:07:59;;;;;;;8.40;3.20;;;;;;;23.22;67.49;101322.03;5041043;28;20198;-69
2021/07/26 06:10:27;;;;;;;4.80;2.87;;;;;;;23.13;67.38;101333.19;5048978;28;20206;-67
2021/07/26 06:12:57;;;;;;;9.00;3.60;;;;;;;23.18;67.47;101323.41;5036074;28;20256;-68
2021/07/26 06:15:26;;;;;;;4.77;2.80;;;;;;;23.14;67.90;101316.56;5042378;28;20202;-67
2021/07/26 06:17:54;;;;;;;5.67;3.23;;;;;;;23.29;67.46;101329.59;5048882;28;20198;-68
2021/07/26 06:20:22;;;;;;;5.77;2.87;;;;;;;23.26;67.73;101329.91;5047112;28;20741;-69
2021/07/26 06:22:54;;;;;;;5.13;3.17;;;;;;;23.41;67.22;101329.06;5049485;28;20267;-68
2021/07/26 06:25:23;;;;;;;5.17;3.47;;;;;;;23.26;67.51;101289.63;5045640;28;20203;-67
2021/07/26 06:27:52;;;;;;;10.67;3.20;;;;;;;23.45;67.41;101324.94;5049856;28;20226;-68
2021/07/26 06:30:21;;;;;;;5.93;3.10;;;;;;;23.48;67.50;101323.72;5043573;28;20696;-67
2021/07/26 06:32:53;;;;;;;3.97;3.10;;;;;;;23.34;66.46;101317.06;5045478;28;20194;-67
2021/07/26 06:35:21;;;;;;;4.97;3.43;;;;;;;23.60;67.51;101319.63;5047109;28;20598;-69
2021/07/26 06:37:49;;;;;;;5.30;3.50;;;;;;;23.87;66.60;101328.47;5049770;28;20548;-69
2021/07/26 06:40:18;;;;;;;7.93;3.17;;;;;;;24.02;65.35;101316.59;5061743;28;20207;-69
2021/07/26 06:42:46;;;;;;;9.63;3.67;;;;;;;24.40;65.41;101331.34;5045834;28;20224;-69
2021/07/26 06:45:14;;;;;;;6.87;3.13;;;;;;;24.57;62.77;101325.78;5043427;28;20248;-69
2021/07/26 06:47:44;;;;;;;4.60;3.10;;;;;;;24.71;61.79;101327.75;5050410;28;20213;-69
2021/07/26 06:50:13;;;;;;;6.07;3.37;;;;;;;24.93;61.60;101332.41;5048995;28;20210;-69
2021/07/26 06:52:42;;;;;;;11.03;3.20;;;;;;;25.20;59.99;101327.41;5043758;28;20209;-68
2021/07/26 06:55:10;;;;;;;4.60;3.07;;;;;;;25.23;60.18;101300.41;5041693;28;20564;-69
2021/07/26 06:57:39;;;;;;;4.77;2.97;;;;;;;25.66;59.06;101312.53;5048749;28;20199;-68
2021/07/26 07:00:08;;;;;;;5.00;3.07;;;;;;;25.94;57.34;101325.63;5045280;28;20198;-68
2021/07/26 07:02:38;;;;;;;4.50;2.90;;;;;;;26.09;55.73;101321.00;5035250;28;20676;-68
2021/07/26 07:05:09;;;;;;;8.68;3.90;;;;;;;26.21;54.86;101319.44;5041652;28;20567;-68
2021/07/26 07:07:37;;;;;;;6.68;2.97;;;;;;;26.29;53.53;101330.34;5040490;28;20713;-68
2021/07/26 07:10:06;;;;;;;4.53;3.10;;;;;;;26.28;53.41;101322.28;5042367;28;20198;-68
2021/07/26 07:12:34;;;;;;;4.50;3.20;;;;;;;26.45;54.95;101326.56;5049917;28;20213;-66
2021/07/26 07:15:03;;;;;;;5.10;2.97;;;;;;;26.46;53.70;101313.66;5061430;28;20287;-66
2021/07/26 07:17:31;;;;;;;5.45;2.78;;;;;;;26.62;52.71;101324.41;5050909;28;20576;-66
2021/07/26 07:20:03;;;;;;;6.85;2.70;;;;;;;26.68;52.29;101334.69;5049222;28;20202;-66
2021/07/26 07:22:32;;;;;;;5.70;3.40;;;;;;;26.71;52.13;101326.03;5040489;28;20206;-70
2021/07/26 07:25:01;;;;;;;5.53;3.10;;;;;;;26.69;50.38;101328.13;5036894;28;20601;-66
2021/07/26 07:27:29;;;;;;;5.75;3.10;;;;;;;26.64;50.72;101340.78;5049233;28;20701;-67
2021/07/26 07:30:13;;;;;;;5.80;3.33;;;;;;;26.47;51.65;101337.41;5041667;28;20209;-69
2021/07/26 07:32:41;;;;;;;9.80;3.75;;;;;;;26.47;51.11;101321.72;5040820;28;20281;-69
2021/07/26 07:35:10;;;;;;;8.73;3.50;;;;;;;26.61;50.76;101319.97;5036839;28;20217;-70
2021/07/26 07:37:41;;;;;;;6.47;3.10;;;;;;;26.65;50.54;101325.97;5036709;28;20205;-69
2021/07/26 07:40:10;;;;;;;4.30;2.80;;;;;;;26.65;50.38;101323.19;5041533;28;20194;-69
2021/07/26 07:42:39;;;;;;;6.15;2.97;;;;;;;26.57;50.75;101335.19;5045944;28;20207;-69
2021/07/26 07:45:08;;;;;;;5.47;3.13;;;;;;;26.70;50.00;101328.97;5048136;28;20637;-69
2021/07/26 07:47:36;;;;;;;10.70;2.80;;;;;;;26.75;48.54;101318.22;5049805;28;20221;-69
2021/07/26 07:50:06;;;;;;;6.10;3.00;;;;;;;26.85;49.62;101325.09;5049971;28;20210;-66
2021/07/26 07:52:34;;;;;;;6.32;2.95;;;;;;;27.01;48.83;101323.19;5048686;28;20722;-67
2021/07/26 07:55:05;;;;;;;7.35;3.28;;;;;;;27.29;49.69;101332.34;5050164;28;20308;-67
2021/07/26 07:57:35;;;;;;;5.10;2.83;;;;;;;27.39;47.81;101327.34;5050097;28;20206;-67
2021/07/26 08:00:04;;;;;;;5.18;2.53;;;;;;;27.44;47.99;101330.34;5050482;28;20202;-69
2021/07/26 08:02:34;;;;;;;5.15;2.70;;;;;;;27.43;48.10;101334.16;5045388;28;20194;-69
2021/07/26 08:05:02;;;;;;;7.60;3.15;;;;;;;27.40;46.94;101350.25;5041235;28;20202;-69
2021/07/26 08:07:30;;;;;;;4.00;2.75;;;;;;;27.30;47.19;101341.50;5044505;28;20263;-69
2021/07/26 08:09:58;;;;;;;4.43;2.75;;;;;;;27.31;47.74;101330.25;5049077;28;20669;-69
2021/07/26 08:12:28;;;;;;;8.00;3.15;;;;;;;27.41;47.18;101340.94;5049657;28;20202;-69
2021/07/26 08:14:56;;;;;;;7.82;3.15;;;;;;;27.23;47.73;101338.66;5044572;28;20240;-69
2021/07/26 08:17:24;;;;;;;5.38;2.85;;;;;;;27.14;47.31;101343.44;5049169;28;20666;-69
2021/07/26 08:19:53;;;;;;;6.43;3.05;;;;;;;26.84;47.97;101336.31;5049827;28;20283;-69
2021/07/26 08:22:21;;;;;;;6.30;3.08;;;;;;;26.52;49.11;101318.38;5049364;28;20652;-70
2021/07/26 08:24:50;;;;;;;9.93;3.80;;;;;;;26.64;49.07;101340.78;5048387;28;20202;-69
2021/07/26 08:27:18;;;;;;;9.23;3.08;;;;;;;26.33;49.94;101336.34;5049063;28;20198;-69
2021/07/26 08:29:47;;;;;;;3.55;2.60;;;;;;;26.34;50.08;101332.59;5049255;28;20310;-67
2021/07/26 08:32:16;;;;;;;6.40;2.78;;;;;;;26.20;49.79;101298.47;5048935;28;20198;-67
2021/07/26 08:34:44;;;;;;;3.10;2.65;;;;;;;26.25;50.06;101344.69;5061475;28;20706;-67
2021/07/26 08:37:12;;;;;;;5.07;2.45;;;;;;;26.34;49.57;101326.22;5047127;28;20229;-66
2021/07/26 08:39:40;;;;;;;6.13;2.90;;;;;;;26.37;50.40;101353.38;5049323;28;20197;-66
2021/07/26 08:42:08;;;;;;;6.65;2.72;;;;;;;26.25;50.18;101342.81;5034898;28;20206;-67
2021/07/26 08:44:37;;;;;;;5.95;2.75;;;;;;;26.07;49.65;101336.84;5049628;28;20205;-67
2021/07/26 08:47:07;;;;;;;6.50;2.63;;;;;;;26.14;50.45;101354.31;5048665;28;20194;-67
2021/07/26 08:49:35;;;;;;;5.88;2.92;;;;;;;26.09;49.70;101361.44;5038999;28;20213;-67
2021/07/26 08:52:05;;;;;;;4.93;2.65;;;;;;;25.85;51.40;101354.31;5045378;28;20190;-75
2021/07/26 08:54:33;;;;;;;7.47;2.75;;;;;;;25.90;50.96;101362.84;5034934;28;20218;-70
2021/07/26 08:57:03;;;;;;;5.38;2.60;;;;;;;25.96;51.31;101351.94;5036796;28;20255;-70
2021/07/26 08:59:32;;;;;;;4.85;2.63;;;;;;;26.02;50.91;101344.84;5033773;28;20672;-70
2021/07/26 09:02:01;;;;;;;3.70;2.83;;;;;;;26.04;51.25;101358.41;5042458;28;20336;-70
2021/07/26 09:04:31;;;;;;;7.53;2.33;;;;;;;26.09;50.30;101355.94;5045881;28;20663;-70
2021/07/26 09:06:59;;;;;;;4.72;2.67;;;;;;;26.10;50.25;101353.00;5037945;28;20205;-70
2021/07/26 09:09:44;;;;;;;10.52;2.45;;;;;;;25.92;50.31;101334.09;5039523;28;20190;-67
2021/07/26 09:12:28;;;;;;;5.20;2.85;;;;;;;25.85;51.48;101351.56;5041038;28;20205;-67
2021/07/26 09:14:57;;;;;;;4.15;2.38;;;;;;;25.81;51.72;101358.50;5041704;28;20223;-67
2021/07/26 09:17:25;;;;;;;7.47;2.47;;;;;;;25.72;52.22;101349.47;5037912;28;20213;-67
2021/07/26 09:19:59;;;;;;;4.13;2.47;;;;;;;25.79;53.01;101366.09;5047517;28;20228;-67
2021/07/26 09:22:28;;;;;;;3.67;2.47;;;;;;;25.77;52.13;101363.53;5041865;28;20285;-67
2021/07/26 09:25:15;;;;;;;4.20;2.60;;;;;;;25.72;52.97;101366.00;5032557;28;20388;-67
2021/07/26 09:28:07;;;;;;;6.10;3.08;;;;;;;25.54;53.77;101366.28;5041253;28;20244;-67
2021/07/26 09:30:44;;;;;;;4.87;2.80;;;;;;;25.63;53.84;101361.56;5044501;28;20620;-67
2021/07/26 09:33:20;;;;;;;7.00;2.60;;;;;;;25.62;53.28;101363.44;5038096;28;20669;-67
2021/07/26 09:36:06;;;;;;;3.00;2.30;;;;;;;25.55;53.37;101332.22;5048247;28;20218;-68
2021/07/26 09:38:39;;;;;;;4.55;2.50;;;;;;;25.82;53.39;101354.69;5064652;28;20209;-69
2021/07/26 09:41:08;;;;;;;5.95;2.90;;;;;;;25.85;52.39;101346.06;5029410;28;20706;-69
2021/07/26 09:43:38;;;;;;;3.70;2.30;;;;;;;25.96;52.34;101351.09;5045881;28;20671;-67
2021/07/26 09:46:06;;;;;;;3.83;2.00;;;;;;;25.95;52.50;101344.72;5048502;28;20194;-68
2021/07/26 09:48:34;;;;;;;3.20;2.15;;;;;;;25.89;52.42;101359.25;5048136;28;20206;-67
2021/07/26 09:51:24;;;;;;;2.40;1.90;;;;;;;25.60;52.82;101354.53;5048862;28;20201;-67
2021/07/26 09:53:52;;;;;;;3.33;2.17;;;;;;;25.54;53.14;101348.94;5048303;28;20666;-68
2021/07/26 09:56:20;;;;;;;5.05;2.30;;;;;;;25.39;53.35;101359.88;5046897;28;20590;-67
2021/07/26 09:58:49;;;;;;;3.55;2.05;;;;;;;25.44;53.42;101351.09;5046414;28;20202;-67
2021/07/26 10:01:17;;;;;;;3.08;2.28;;;;;;;25.68;54.37;101354.47;5048628;28;20194;-68
2021/07/26 10:03:46;;;;;;;3.78;2.10;;;;;;;25.65;53.72;101346.56;5045393;28;20198;-67
2021/07/26 10:06:15;;;;;;;6.80;2.47;;;;;;;25.57;53.20;101341.16;5046424;28;20225;-69
2021/07/26 10:08:45;;;;;;;3.40;2.05;;;;;;;25.55;53.25;101350.63;5046798;28;20206;-69
2021/07/26 10:11:15;;;;;;;3.83;2.13;;;;;;;25.78;52.71;101345.13;5047492;28;20194;-68
2021/07/26 10:13:46;;;;;;;4.38;2.60;;;;;;;25.77;52.98;101346.16;5047152;28;20213;-68
2021/07/26 10:16:15;;;;;;;5.47;2.25;;;;;;;25.69;52.68;101331.41;5049851;28;20257;-69
2021/07/26 10:18:45;;;;;;;4.88;2.45;;;;;;;25.63;52.26;101343.16;5052209;28;20206;-68
2021/07/26 10:21:17;;;;;;;4.57;2.10;;;;;;;25.73;52.52;101342.06;5052970;28;20240;-68
2021/07/26 10:23:55;;;;;;;4.47;2.00;;;;;;;25.56;52.91;101328.44;5051806;28;20233;-69
2021/07/26 10:26:36;;;;;;;3.45;1.98;;;;;;;25.71;53.00;101335.88;5051874;28;20198;-69
2021/07/26 10:29:05;;;;;;;4.93;2.28;;;;;;;25.82;53.13;101341.78;5037334;28;20434;-68
2021/07/26 10:31:38;;;;;;;3.33;1.88;;;;;;;25.82;52.81;101330.78;5051987;28;20226;-68
2021/07/26 10:34:09;;;;;;;2.63;1.65;;;;;;;25.85;52.13;101329.53;5051053;28;20888;-68
2021/07/26 10:36:55;;;;;;;3.20;2.00;;;;;;;25.98;52.38;101329.72;5050822;28;20226;-68
2021/07/26 10:39:28;;;;;;;3.47;1.98;;;;;;;26.16;51.90;101329.34;5038719;28;20625;-68
2021/07/26 10:42:03;;;;;;;4.13;1.95;;;;;;;26.37;52.28;101331.34;5039301;28;20202;-67
2021/07/26 10:44:45;;;;;;;3.42;2.03;;;;;;;26.25;51.65;101329.03;5043774;28;20212;-68
2021/07/26 10:47:17;;;;;;;2.42;1.95;;;;;;;26.27;51.39;101323.31;5042056;28;20218;-69
2021/07/26 10:50:14;;;;;;;5.40;2.00;;;;;;;26.31;51.87;101327.41;5041944;28;20193;-68
2021/07/26 10:52:47;;;;;;;3.50;1.98;;;;;;;26.26;51.13;101318.88;5044917;28;20624;-69
2021/07/26 10:55:58;;;;;;;3.22;2.20;;;;;;;26.36;51.45;101329.63;5046600;28;20259;-67
2021/07/26 10:59:04;;;;;;;3.65;1.92;;;;;;;26.14;50.73;101321.28;5046048;28;20716;-68
2021/07/26 11:01:59;;;;;;;2.33;2.00;;;;;;;25.90;51.87;101313.31;5026380;28;20210;-66
2021/07/26 11:04:40;;;;;;;6.75;2.40;;;;;;;25.64;52.14;101320.09;5037598;28;20202;-67
2021/07/26 11:07:11;;;;;;;5.07;2.10;;;;;;;25.66;52.17;101322.66;5046154;28;20190;-66
2021/07/26 11:09:47;;;;;;;5.45;1.98;;;;;;;25.54;52.24;101297.50;5046171;28;20210;-66
2021/07/26 11:12:36;;;;;;;6.18;2.20;;;;;;;25.70;52.80;101318.50;5045981;28;20252;-66
2021/07/26 11:15:16;;;;;;;3.57;1.93;;;;;;;25.46;52.98;101321.50;5045873;28;20688;-66
2021/07/26 11:18:19;;;;;;;10.30;2.47;;;;;;;25.39;54.07;101321.38;5045514;28;20190;-66
2021/07/26 11:21:04;;;;;;;5.00;2.00;;;;;;;25.34;53.50;101316.44;5042972;28;20194;-66
2021/07/26 11:23:43;;;;;;;2.70;2.28;;;;;;;25.30;52.84;101311.50;5042539;28;20289;-66
2021/07/26 11:26:20;;;;;;;5.00;2.25;;;;;;;25.51;52.82;101303.41;5039559;28;20284;-66
2021/07/26 11:28:50;;;;;;;5.13;2.00;;;;;;;25.68;51.08;101313.19;5042039;28;20242;-66
2021/07/26 11:31:40;;;;;;;3.23;1.97;;;;;;;25.88;51.17;101310.75;5045982;28;20220;-66
2021/07/26 11:34:12;;;;;;;4.13;2.00;;;;;;;25.95;50.56;101311.69;5039377;28;20732;-66
2021/07/26 11:37:03;;;;;;;2.72;1.80;;;;;;;26.10;51.10;101306.19;5042453;28;20789;-68
2021/07/26 11:39:45;;;;;;;2.63;1.73;;;;;;;26.07;49.74;101309.31;5041452;28;20632;-68
2021/07/26 11:42:15;;;;;;;2.78;1.90;;;;;;;25.92;49.59;101280.94;5038951;28;20206;-68